Time;durP1;ratioP1;P1;durP2;ratioP2;P2;SDS_P1;SDS_P2;PMS_P1;PMS_P2;Temp;Humidity;BMP_temperature;BMP_pressure;BME280_temperature;BME280_humidity;BME280_pressure;Samples;Min_cycle;Max_cycle;Signal;HPM_P1;HPM_P2
2023/12/25 00:01:05;;;;;;;0.32;0.32;;;11.20;99.90;;;;;;5105226;27;20129;-75
2023/12/25 00:03:30;;;;;;;;;;;11.20;99.90;;;;;;5122731;27;20506;-76
2023/12/25 00:05:57;;;;;;;2.35;1.00;;;11.20;99.90;;;;;;5133930;27;20014;-80
2023/12/25 00:08:22;;;;;;;;;;;11.20;99.90;;;;;;5134412;27;20035;-77
2023/12/25 00:10:48;;;;;;;0.30;0.30;;;11.20;99.90;;;;;;5126495;27;19919;-77
2023/12/25 00:13:13;;;;;;;0.45;0.45;;;11.20;99.90;;;;;;5123734;27;20039;-81
2023/12/25 00:15:39;;;;;;;2.00;0.45;;;11.20;99.90;;;;;;5127004;27;20042;-79
2023/12/25 00:18:05;;;;;;;1.00;0.75;;;11.20;99.90;;;;;;5121599;27;20066;-77
2023/12/25 00:20:30;;;;;;;0.38;0.38;;;11.20;99.90;;;;;;5108074;27;20115;-81
2023/12/25 00:22:56;;;;;;;0.35;0.35;;;11.20;99.90;;;;;;5123412;27;20058;-79
2023/12/25 00:25:22;;;;;;;0.30;0.30;;;11.20;99.90;;;;;;5119300;28;20497;-77
2023/12/25 00:27:47;;;;;;;0.45;0.45;;;11.20;99.90;;;;;;5126588;27;20058;-75
2023/12/25 00:30:14;;;;;;;0.70;0.70;;;11.30;99.90;;;;;;5104881;28;20460;-77
2023/12/25 00:32:39;;;;;;;0.73;0.73;;;11.30;99.90;;;;;;5106180;27;20039;-75
2023/12/25 00:35:05;;;;;;;3.08;1.00;;;11.30;99.90;;;;;;5121758;27;20039;-77
2023/12/25 00:37:31;;;;;;;0.30;0.30;;;11.30;99.90;;;;;;5125267;28;20428;-79
2023/12/25 00:39:57;;;;;;;0.85;0.85;;;11.30;99.90;;;;;;5122777;27;20047;-78
2023/12/25 00:42:22;;;;;;;0.30;0.30;;;11.20;99.90;;;;;;5122704;28;20043;-75
2023/12/25 00:44:49;;;;;;;0.30;0.30;;;11.30;99.90;;;;;;5122364;27;20062;-80
2023/12/25 00:47:15;;;;;;;0.40;0.40;;;11.30;99.90;;;;;;5123631;28;20043;-75
2023/12/25 00:49:40;;;;;;;0.77;0.77;;;11.30;99.90;;;;;;5121012;27;20079;-77
2023/12/25 00:52:06;;;;;;;0.38;0.38;;;11.30;99.90;;;;;;5120858;27;20080;-79
2023/12/25 00:54:32;;;;;;;0.40;0.40;;;11.30;99.90;;;;;;5120039;27;20119;-76
2023/12/25 00:56:58;;;;;;;0.90;0.85;;;11.30;99.90;;;;;;5123204;27;20516;-78
2023/12/25 00:59:24;;;;;;;;;;;11.30;99.90;;;;;;5123243;27;20123;-76
2023/12/25 01:01:50;;;;;;;0.40;0.40;;;11.30;99.90;;;;;;5104090;27;20002;-75
2023/12/25 01:04:16;;;;;;;0.30;0.30;;;11.30;99.90;;;;;;5109323;27;20623;-79
2023/12/25 01:06:41;;;;;;;0.30;0.30;;;11.30;99.90;;;;;;5118121;27;20043;-78
2023/12/25 01:09:07;;;;;;;0.47;0.47;;;11.30;99.90;;;;;;5127498;27;20039;-79
2023/12/25 01:11:40;;;;;;;0.40;0.40;;;11.30;99.90;;;;;;5125407;27;20109;-76
2023/12/25 01:14:07;;;;;;;0.30;0.30;;;11.20;99.90;;;;;;5119888;28;20081;-77
2023/12/25 01:16:32;;;;;;;;;;;11.20;99.90;;;;;;5131249;27;20118;-79
2023/12/25 01:18:58;;;;;;;0.25;0.25;;;11.20;99.90;;;;;;5137472;27;20013;-78
2023/12/25 01:21:24;;;;;;;5.53;1.45;;;11.20;99.90;;;;;;5135044;27;20045;-79
2023/12/25 01:23:49;;;;;;;0.35;0.35;;;11.20;99.90;;;;;;5127264;27;20569;-76
2023/12/25 01:26:15;;;;;;;0.40;0.40;;;11.20;99.90;;;;;;5132009;27;20137;-78
2023/12/25 01:28:41;;;;;;;0.40;0.40;;;11.20;99.90;;;;;;5132322;27;20031;-79
2023/12/25 01:31:07;;;;;;;0.70;0.70;;;11.10;99.90;;;;;;5132365;27;20121;-79
2023/12/25 01:33:32;;;;;;;0.35;0.35;;;11.10;99.90;;;;;;5129522;27;20202;-76
2023/12/25 01:35:59;;;;;;;0.70;0.70;;;11.10;99.90;;;;;;5096633;27;20043;-75
2023/12/25 01:38:24;;;;;;;;;;;11.00;99.90;;;;;;5132471;27;20050;-75
2023/12/25 01:40:50;;;;;;;0.60;0.60;;;11.00;99.90;;;;;;5108037;27;19919;-79
2023/12/25 01:43:16;;;;;;;0.75;0.75;;;11.00;99.90;;;;;;5099356;27;20131;-79
2023/12/25 01:45:41;;;;;;;0.75;0.75;;;11.00;99.90;;;;;;5114386;27;20046;-75
2023/12/25 01:48:07;;;;;;;0.95;0.95;;;11.00;99.90;;;;;;5134367;27;20130;-76
2023/12/25 01:50:34;;;;;;;0.30;0.30;;;10.10;99.90;;;;;;5104149;27;20403;-78
2023/12/25 01:53:00;;;;;;;;;;;10.90;99.90;;;;;;5128896;27;20035;-78
2023/12/25 01:55:26;;;;;;;0.40;0.40;;;10.90;99.90;;;;;;5127051;27;19919;-74
2023/12/25 01:57:52;;;;;;;0.32;0.32;;;10.90;99.90;;;;;;5130431;27;20046;-80
2023/12/25 02:00:17;;;;;;;5.00;1.30;;;10.80;99.90;;;;;;5113707;27;20074;-78
2023/12/25 02:02:43;;;;;;;0.30;0.30;;;10.80;99.90;;;;;;5135751;27;20132;-74
2023/12/25 02:05:09;;;;;;;0.40;0.40;;;10.80;99.90;;;;;;5117356;27;20042;-76
2023/12/25 02:07:39;;;;;;;0.40;0.40;;;10.70;99.90;;;;;;5133516;27;20081;-76
2023/12/25 02:10:06;;;;;;;0.47;0.47;;;10.80;99.90;;;;;;5133184;27;20038;-78
2023/12/25 02:12:32;;;;;;;0.50;0.50;;;10.80;99.90;;;;;;5122014;27;20050;-74
2023/12/25 02:14:57;;;;;;;0.30;0.30;;;10.70;99.90;;;;;;5115267;27;20031;-77
2023/12/25 02:17:23;;;;;;;0.50;0.50;;;10.70;99.90;;;;;;5135341;27;20041;-77
2023/12/25 02:19:49;;;;;;;0.30;0.30;;;10.70;99.90;;;;;;5135158;27;20084;-76
2023/12/25 02:22:15;;;;;;;0.30;0.30;;;10.70;99.90;;;;;;5116330;27;20078;-75
2023/12/25 02:25:01;;;;;;;6.32;0.93;;;10.70;99.90;;;;;;5132847;27;20087;-77
2023/12/25 02:27:28;;;;;;;2.10;2.00;;;10.60;99.90;;;;;;5139237;27;20043;-77
2023/12/25 02:29:54;;;;;;;0.47;0.47;;;10.50;99.90;;;;;;5115971;27;20280;-79
2023/12/25 02:32:20;;;;;;;0.73;0.73;;;10.50;99.90;;;;;;5138889;27;20387;-74
2023/12/25 02:34:47;;;;;;;2.22;2.13;;;10.50;99.90;;;;;;5097606;28;20047;-79
2023/12/25 02:37:13;;;;;;;0.47;0.47;;;10.70;99.90;;;;;;5127860;27;20134;-77
2023/12/25 02:39:39;;;;;;;2.25;2.05;;;10.70;99.90;;;;;;5113172;27;20051;-75
2023/12/25 02:42:05;;;;;;;1.90;1.80;;;10.80;99.90;;;;;;5130344;27;20050;-75
2023/12/25 02:44:31;;;;;;;0.90;0.90;;;10.80;99.90;;;;;;5129553;27;20035;-80
2023/12/25 02:46:56;;;;;;;0.28;0.28;;;10.80;99.90;;;;;;5110991;27;20334;-77
2023/12/25 02:49:22;;;;;;;0.50;0.50;;;10.70;99.90;;;;;;5128656;27;20134;-82
2023/12/25 02:51:48;;;;;;;0.30;0.30;;;10.70;99.90;;;;;;5129399;27;20126;-74
2023/12/25 02:54:14;;;;;;;0.30;0.30;;;10.60;99.90;;;;;;5133669;27;20034;-77
2023/12/25 02:56:40;;;;;;;0.30;0.30;;;10.60;99.90;;;;;;5136091;27;20035;-77
2023/12/25 02:59:06;;;;;;;0.40;0.40;;;10.50;99.90;;;;;;5115352;27;20047;-74
2023/12/25 03:01:32;;;;;;;0.82;0.82;;;10.50;99.90;;;;;;5113299;27;20330;-77
2023/12/25 03:03:57;;;;;;;0.30;0.30;;;10.50;99.90;;;;;;5130032;27;20050;-77
2023/12/25 03:06:23;;;;;;;2.17;2.08;;;10.50;99.90;;;;;;5131379;27;20044;-76
2023/12/25 03:08:49;;;;;;;0.30;0.30;;;10.60;99.90;;;;;;5130625;27;20130;-80
2023/12/25 03:11:14;;;;;;;0.40;0.40;;;10.50;99.90;;;;;;5128619;27;20096;-79
2023/12/25 03:13:41;;;;;;;0.40;0.40;;;10.50;99.90;;;;;;5130951;27;20031;-75
2023/12/25 03:16:08;;;;;;;0.60;0.60;;;10.50;99.90;;;;;;5111633;27;20039;-74
2023/12/25 03:18:34;;;;;;;2.67;1.50;;;10.50;99.90;;;;;;5129775;27;20046;-77
2023/12/25 03:21:00;;;;;;;0.43;0.43;;;10.50;99.90;;;;;;5131296;27;20047;-75
2023/12/25 03:23:26;;;;;;;1.38;1.38;;;10.50;99.90;;;;;;5133898;27;20076;-80
2023/12/25 03:25:52;;;;;;;0.50;0.50;;;10.50;99.90;;;;;;5128947;27;20549;-79
2023/12/25 03:28:18;;;;;;;0.40;0.40;;;10.50;99.90;;;;;;5130098;27;20039;-78
2023/12/25 03:30:43;;;;;;;0.40;0.40;;;10.50;99.90;;;;;;5136043;27;20038;-76
2023/12/25 03:33:09;;;;;;;1.67;1.58;;;10.60;99.90;;;;;;5142470;27;20126;-79
2023/12/25 03:35:35;;;;;;;;;;;10.50;99.90;;;;;;5114319;27;20598;-80
2023/12/25 03:38:01;;;;;;;0.30;0.30;;;10.50;99.90;;;;;;5135561;27;20376;-77
2023/12/25 03:40:26;;;;;;;0.30;0.30;;;10.50;99.90;;;;;;5128809;27;20474;-79
2023/12/25 03:42:54;;;;;;;0.30;0.30;;;10.50;99.90;;;;;;5092932;27;20027;-75
2023/12/25 03:45:20;;;;;;;0.30;0.30;;;10.50;99.90;;;;;;5129480;27;20049;-77
2023/12/25 03:47:45;;;;;;;3.60;0.55;;;10.60;99.90;;;;;;5129879;27;20551;-76
2023/12/25 03:50:11;;;;;;;0.40;0.40;;;10.60;99.90;;;;;;5130431;27;20106;-76
2023/12/25 03:52:37;;;;;;;0.30;0.30;;;10.50;99.90;;;;;;5129221;27;20126;-75
2023/12/25 03:55:03;;;;;;;0.30;0.30;;;10.50;99.90;;;;;;5112285;27;20031;-78
2023/12/25 03:57:28;;;;;;;0.40;0.40;;;10.50;99.90;;;;;;5112378;27;20065;-79
2023/12/25 03:59:54;;;;;;;0.40;0.40;;;10.40;99.90;;;;;;5132770;27;20131;-77
2023/12/25 04:02:20;;;;;;;0.93;0.93;;;10.50;99.90;;;;;;5115109;27;20388;-77
2023/12/25 04:04:46;;;;;;;0.30;0.30;;;10.50;99.90;;;;;;5112717;28;20074;-74
2023/12/25 04:07:12;;;;;;;0.30;0.30;;;10.50;99.90;;;;;;5129619;27;20035;-77
2023/12/25 04:09:38;;;;;;;0.30;0.30;;;10.50;99.90;;;;;;5095187;28;20567;-78
2023/12/25 04:12:04;;;;;;;0.30;0.30;;;10.50;99.90;;;;;;5128183;27;20046;-77
2023/12/25 04:14:30;;;;;;;1.23;1.15;;;10.50;99.90;;;;;;5131502;27;20468;-75
2023/12/25 04:16:56;;;;;;;0.28;0.28;;;10.50;99.90;;;;;;5128429;27;20492;-76
2023/12/25 04:19:21;;;;;;;1.17;1.15;;;10.50;99.90;;;;;;5132089;27;20043;-74
2023/12/25 04:21:47;;;;;;;0.50;0.50;;;10.50;99.90;;;;;;5132174;27;20042;-75
2023/12/25 04:24:13;;;;;;;0.60;0.60;;;10.50;99.90;;;;;;5132683;27;20047;-78
2023/12/25 04:26:38;;;;;;;0.52;0.52;;;10.50;99.90;;;;;;5129483;27;20487;-77
2023/12/25 04:29:04;;;;;;;0.82;0.82;;;10.50;99.90;;;;;;5131413;27;20518;-77
2023/12/25 04:31:30;;;;;;;0.77;0.77;;;10.60;99.90;;;;;;5128192;27;20074;-78
2023/12/25 04:33:55;;;;;;;1.02;1.02;;;10.50;99.90;;;;;;5111141;28;20495;-80
2023/12/25 04:36:21;;;;;;;0.38;0.38;;;10.50;99.90;;;;;;5128276;27;20027;-76
2023/12/25 04:38:47;;;;;;;0.30;0.30;;;10.50;99.90;;;;;;5113023;27;20074;-78
2023/12/25 04:41:13;;;;;;;0.60;0.60;;;10.50;99.90;;;;;;5111409;28;20035;-77
2023/12/25 04:43:39;;;;;;;0.40;0.40;;;10.40;99.90;;;;;;5133689;27;20039;-73
2023/12/25 04:46:05;;;;;;;2.75;0.63;;;10.40;99.90;;;;;;5109485;28;20369;-78
2023/12/25 04:48:31;;;;;;;0.30;0.30;;;10.40;99.90;;;;;;5130038;27;20039;-78
2023/12/25 04:50:59;;;;;;;0.40;0.40;;;10.40;99.90;;;;;;5129279;27;20586;-78
2023/12/25 04:53:24;;;;;;;0.30;0.30;;;10.40;99.90;;;;;;5131681;27;20142;-75
2023/12/25 04:55:51;;;;;;;0.30;0.30;;;10.50;99.90;;;;;;5114717;27;20046;-81
2023/12/25 04:58:16;;;;;;;0.47;0.47;;;10.40;99.90;;;;;;5132467;27;20046;-77
2023/12/25 05:00:42;;;;;;;0.50;0.50;;;10.50;99.90;;;;;;5133822;27;20258;-75
2023/12/25 05:03:08;;;;;;;3.17;0.70;;;10.40;99.90;;;;;;5134208;27;20031;-76
2023/12/25 05:05:34;;;;;;;;;;;10.40;99.90;;;;;;5108025;27;20122;-75
2023/12/25 05:07:59;;;;;;;0.30;0.30;;;10.30;99.90;;;;;;5134087;27;20022;-78
2023/12/25 05:10:25;;;;;;;0.40;0.40;;;10.40;99.90;;;;;;5096994;27;20364;-77
2023/12/25 05:12:51;;;;;;;0.30;0.30;;;10.30;99.90;;;;;;5133821;27;20501;-77
2023/12/25 05:15:16;;;;;;;0.30;0.30;;;10.30;99.90;;;;;;5133771;27;20046;-75
2023/12/25 05:17:42;;;;;;;0.50;0.50;;;10.30;99.90;;;;;;5131855;27;20027;-74
2023/12/25 05:20:08;;;;;;;0.30;0.30;;;10.20;99.90;;;;;;5130819;27;20043;-78
2023/12/25 05:22:34;;;;;;;2.05;1.08;;;10.20;99.90;;;;;;5135091;27;20031;-79
2023/12/25 05:24:59;;;;;;;0.30;0.30;;;10.20;99.90;;;;;;5117758;27;20053;-79
2023/12/25 05:27:26;;;;;;;0.30;0.30;;;10.20;99.90;;;;;;5131043;27;20122;-75
2023/12/25 05:29:51;;;;;;;;;;;10.20;99.90;;;;;;5139383;27;20462;-78
2023/12/25 05:32:18;;;;;;;0.30;0.30;;;10.30;99.90;;;;;;5135316;27;19927;-75
2023/12/25 05:34:44;;;;;;;0.30;0.30;;;10.20;99.90;;;;;;5131765;27;20084;-79
2023/12/25 05:37:10;;;;;;;0.40;0.40;;;10.20;99.90;;;;;;5133923;27;20434;-77
2023/12/25 05:39:35;;;;;;;0.40;0.40;;;10.20;99.90;;;;;;5136399;27;20511;-75
2023/12/25 05:42:01;;;;;;;0.40;0.40;;;10.20;99.90;;;;;;5134616;27;20062;-76
2023/12/25 05:44:27;;;;;;;0.40;0.40;;;10.10;99.90;;;;;;5134020;27;20032;-78
2023/12/25 05:46:52;;;;;;;0.30;0.30;;;10.10;99.90;;;;;;5108021;27;20035;-76
2023/12/25 05:49:18;;;;;;;0.50;0.50;;;10.10;99.90;;;;;;5097332;27;20054;-76
2023/12/25 05:51:44;;;;;;;0.35;0.35;;;10.00;99.90;;;;;;5132120;27;20043;-77
2023/12/25 05:54:09;;;;;;;0.40;0.40;;;10.10;99.90;;;;;;5115527;27;20035;-72
2023/12/25 05:56:35;;;;;;;0.57;0.57;;;8.90;99.90;;;;;;5130353;27;20039;-76
2023/12/25 05:59:01;;;;;;;0.40;0.40;;;10.00;99.90;;;;;;5133254;27;20046;-76
2023/12/25 06:01:27;;;;;;;0.38;0.38;;;10.00;99.90;;;;;;5133959;27;20042;-78
2023/12/25 06:03:53;;;;;;;0.70;0.70;;;10.00;99.90;;;;;;5113825;27;20035;-76
2023/12/25 06:06:18;;;;;;;2.30;1.40;;;9.90;99.90;;;;;;5133994;27;20491;-75
2023/12/25 06:08:44;;;;;;;0.40;0.40;;;9.90;99.90;;;;;;5131630;27;20387;-77
2023/12/25 06:11:09;;;;;;;0.30;0.30;;;9.90;99.90;;;;;;5130827;27;20038;-76
2023/12/25 06:13:35;;;;;;;0.35;0.35;;;9.90;99.90;;;;;;5131976;27;20383;-77
2023/12/25 06:16:01;;;;;;;0.47;0.47;;;9.90;99.90;;;;;;5130235;27;20038;-78
2023/12/25 06:18:27;;;;;;;0.45;0.45;;;9.90;99.90;;;;;;5136215;27;20041;-77
2023/12/25 06:20:53;;;;;;;0.40;0.40;;;9.80;99.90;;;;;;5133190;27;20120;-81
2023/12/25 06:23:18;;;;;;;0.90;0.90;;;9.80;99.90;;;;;;5112298;27;20042;-80
2023/12/25 06:25:44;;;;;;;0.40;0.40;;;9.70;99.90;;;;;;5129210;27;20074;-77
2023/12/25 06:28:10;;;;;;;2.15;1.95;;;9.60;99.90;;;;;;5112833;27;20385;-77
2023/12/25 06:30:35;;;;;;;0.50;0.50;;;9.60;99.90;;;;;;5131813;27;20436;-77
2023/12/25 06:33:01;;;;;;;0.40;0.40;;;9.60;99.90;;;;;;5130096;27;20043;-78
2023/12/25 06:35:27;;;;;;;0.40;0.40;;;9.50;99.90;;;;;;5113325;27;20084;-80
2023/12/25 06:37:53;;;;;;;0.30;0.30;;;9.50;99.90;;;;;;5108788;27;20031;-79
2023/12/25 06:40:19;;;;;;;0.75;0.75;;;9.60;99.90;;;;;;5109597;27;20047;-77
2023/12/25 06:42:44;;;;;;;0.30;0.30;;;9.60;99.90;;;;;;5130051;27;20050;-77
2023/12/25 06:45:10;;;;;;;0.40;0.40;;;9.70;99.90;;;;;;5129141;27;20542;-79
2023/12/25 06:47:36;;;;;;;0.38;0.38;;;9.60;99.90;;;;;;5133189;27;20050;-77
2023/12/25 06:50:02;;;;;;;0.30;0.30;;;9.60;99.90;;;;;;5102514;27;20066;-74
2023/12/25 06:52:27;;;;;;;0.30;0.30;;;9.60;99.90;;;;;;5129260;27;20039;-77
2023/12/25 06:54:53;;;;;;;0.43;0.43;;;9.60;99.90;;;;;;5132633;27;20044;-81
2023/12/25 06:57:19;;;;;;;0.50;0.50;;;9.60;99.90;;;;;;5128549;27;20047;-79
2023/12/25 06:59:45;;;;;;;0.40;0.40;;;9.70;99.90;;;;;;5129736;27;20499;-77
2023/12/25 07:02:11;;;;;;;0.30;0.30;;;9.70;99.90;;;;;;5089633;27;20046;-77
2023/12/25 07:04:38;;;;;;;0.30;0.30;;;9.80;99.90;;;;;;5129597;27;20049;-77
2023/12/25 07:07:03;;;;;;;3.63;1.85;;;9.70;99.90;;;;;;5131898;27;20043;-74
2023/12/25 07:09:29;;;;;;;0.40;0.40;;;9.80;99.90;;;;;;5112438;27;20043;-75
2023/12/25 07:11:55;;;;;;;0.40;0.40;;;9.80;99.90;;;;;;5137415;27;20163;-74
2023/12/25 07:14:22;;;;;;;0.40;0.40;;;9.80;99.90;;;;;;5131998;27;20484;-77
2023/12/25 07:16:48;;;;;;;0.40;0.40;;;9.90;99.90;;;;;;5138509;27;20198;-76
2023/12/25 07:19:14;;;;;;;0.32;0.32;;;9.70;99.90;;;;;;5131196;27;20077;-79
2023/12/25 07:21:42;;;;;;;0.32;0.32;;;9.80;99.90;;;;;;5133534;27;20055;-77
2023/12/25 07:24:08;;;;;;;0.30;0.30;;;9.70;99.90;;;;;;5113627;27;20054;-76
2023/12/25 07:26:33;;;;;;;0.30;0.30;;;9.80;99.90;;;;;;5130264;27;20055;-75
2023/12/25 07:28:59;;;;;;;5.10;0.98;;;9.70;99.90;;;;;;5130876;27;20130;-79
2023/12/25 07:31:25;;;;;;;0.40;0.40;;;9.70;99.90;;;;;;5132588;27;20027;-77
2023/12/25 07:33:51;;;;;;;0.50;0.50;;;9.70;99.90;;;;;;5130503;27;20089;-76
2023/12/25 07:36:17;;;;;;;0.30;0.30;;;9.50;99.90;;;;;;5130701;27;20507;-79
2023/12/25 07:38:43;;;;;;;0.65;0.65;;;9.70;99.90;;;;;;5131095;27;20035;-75
2023/12/25 07:41:09;;;;;;;0.50;0.50;;;9.60;99.90;;;;;;5134001;27;20079;-76
2023/12/25 07:43:36;;;;;;;0.40;0.40;;;9.60;99.90;;;;;;5112459;27;20042;-79
2023/12/25 07:46:06;;;;;;;0.63;0.63;;;9.70;99.90;;;;;;5129191;27;20496;-75
2023/12/25 07:48:33;;;;;;;0.30;0.30;;;9.70;99.90;;;;;;5129939;27;20099;-82
2023/12/25 07:51:01;;;;;;;;;;;9.80;99.90;;;;;;5131505;27;20134;-76
2023/12/25 07:53:28;;;;;;;0.40;0.40;;;9.80;99.90;;;;;;5129715;27;20280;-77
2023/12/25 07:55:53;;;;;;;0.40;0.40;;;9.70;99.90;;;;;;5127451;27;20049;-80
2023/12/25 07:58:19;;;;;;;0.50;0.50;;;9.60;99.90;;;;;;5126125;27;20043;-82
2023/12/25 08:00:45;;;;;;;0.52;0.52;;;9.60;99.90;;;;;;5128644;27;20122;-81
2023/12/25 08:03:11;;;;;;;0.40;0.40;;;9.50;99.90;;;;;;5132135;27;20039;-79
2023/12/25 08:05:38;;;;;;;0.35;0.35;;;9.40;99.90;;;;;;5130787;27;20039;-81
2023/12/25 08:08:05;;;;;;;0.32;0.32;;;9.40;99.90;;;;;;5120946;27;20087;-78
2023/12/25 08:10:31;;;;;;;0.40;0.40;;;9.30;99.90;;;;;;5092685;28;20046;-79
2023/12/25 08:12:58;;;;;;;0.40;0.40;;;9.20;99.90;;;;;;5136809;27;20051;-78
2023/12/25 08:15:25;;;;;;;0.43;0.43;;;9.10;99.90;;;;;;5129264;27;20043;-78
2023/12/25 08:17:51;;;;;;;3.25;2.95;;;9.10;99.90;;;;;;5131289;27;20050;-79
2023/12/25 08:20:18;;;;;;;0.68;0.68;;;9.00;99.90;;;;;;5127492;27;20445;-78
2023/12/25 08:22:44;;;;;;;0.40;0.40;;;9.00;99.90;;;;;;5129614;27;20490;-81
2023/12/25 08:25:09;;;;;;;0.40;0.40;;;8.90;99.90;;;;;;5128380;27;20047;-78
2023/12/25 08:27:35;;;;;;;0.43;0.43;;;9.00;99.90;;;;;;5129897;27;20491;-81
2023/12/25 08:30:04;;;;;;;0.50;0.50;;;8.90;99.90;;;;;;5132296;27;20035;-76
2023/12/25 08:32:30;;;;;;;0.40;0.40;;;8.90;99.90;;;;;;5131637;27;20042;-82
2023/12/25 08:34:56;;;;;;;0.40;0.40;;;8.90;99.90;;;;;;5134133;27;20396;-81
2023/12/25 08:37:21;;;;;;;1.02;1.02;;;9.10;99.90;;;;;;5135331;27;20084;-81
2023/12/25 08:39:47;;;;;;;0.57;0.57;;;8.90;99.90;;;;;;5131528;27;20099;-81
2023/12/25 08:42:13;;;;;;;0.30;0.30;;;8.90;99.90;;;;;;5134758;27;20126;-81
2023/12/25 08:44:39;;;;;;;;;;;8.90;99.90;;;;;;5132310;27;20086;-78
2023/12/25 08:47:05;;;;;;;0.40;0.40;;;9.20;99.90;;;;;;5134372;27;19970;-78
2023/12/25 08:49:30;;;;;;;0.50;0.50;;;8.90;99.90;;;;;;5131569;27;20039;-79
2023/12/25 08:51:56;;;;;;;1.85;1.75;;;8.80;99.90;;;;;;5133852;27;20035;-80
2023/12/25 08:54:22;;;;;;;1.38;1.38;;;8.80;99.90;;;;;;5111287;27;20043;-82
2023/12/25 08:56:48;;;;;;;1.05;1.05;;;8.80;99.90;;;;;;5115974;27;20062;-77
2023/12/25 08:59:13;;;;;;;0.50;0.50;;;8.70;99.90;;;;;;5131518;27;20382;-77
2023/12/25 09:01:39;;;;;;;0.40;0.40;;;8.70;99.90;;;;;;5112699;27;20043;-80
2023/12/25 09:04:06;;;;;;;;;;;8.80;99.90;;;;;;5132069;27;20050;-83
2023/12/25 09:06:32;;;;;;;0.43;0.43;;;8.70;99.90;;;;;;5128734;27;19919;-78
2023/12/25 09:08:58;;;;;;;0.40;0.40;;;8.80;99.90;;;;;;5126950;27;20039;-82
2023/12/25 09:11:23;;;;;;;0.43;0.43;;;9.40;99.90;;;;;;5129770;27;20088;-79
2023/12/25 09:13:50;;;;;;;0.40;0.40;;;8.60;99.90;;;;;;5112076;27;20074;-81
2023/12/25 09:16:15;;;;;;;0.40;0.40;;;8.60;99.90;;;;;;5095296;27;20066;-78
2023/12/25 09:18:41;;;;;;;0.40;0.40;;;8.80;99.90;;;;;;5130593;27;20038;-79
2023/12/25 09:21:07;;;;;;;0.40;0.40;;;8.60;99.90;;;;;;5113260;27;20122;-78
2023/12/25 09:23:34;;;;;;;0.40;0.40;;;8.70;99.90;;;;;;5129244;27;20035;-79
2023/12/25 09:26:00;;;;;;;0.50;0.50;;;8.70;99.90;;;;;;5124355;27;20082;-80
2023/12/25 09:28:25;;;;;;;0.40;0.40;;;8.70;99.90;;;;;;5131309;27;20078;-82
2023/12/25 09:30:51;;;;;;;0.30;0.30;;;8.70;99.90;;;;;;5131554;27;20388;-80
2023/12/25 09:33:17;;;;;;;0.50;0.50;;;8.80;99.90;;;;;;5113629;27;20035;-78
2023/12/25 09:35:42;;;;;;;0.60;0.60;;;8.80;99.90;;;;;;5088452;27;20503;-79
2023/12/25 09:38:08;;;;;;;0.40;0.40;;;8.80;99.90;;;;;;5106488;27;20514;-76
2023/12/25 09:40:34;;;;;;;0.55;0.55;;;8.80;99.90;;;;;;5128667;27;20043;-80
2023/12/25 09:43:03;;;;;;;0.60;0.60;;;8.80;99.90;;;;;;5127433;27;20043;-80
2023/12/25 09:45:37;;;;;;;0.40;0.40;;;8.80;99.90;;;;;;5129477;27;20067;-77
2023/12/25 09:48:07;;;;;;;0.43;0.43;;;8.80;99.90;;;;;;5112527;27;20039;-81
2023/12/25 09:50:35;;;;;;;0.50;0.50;;;8.90;99.90;;;;;;5129549;27;20517;-81
2023/12/25 09:53:01;;;;;;;0.40;0.40;;;8.90;99.90;;;;;;5117791;27;20035;-79
2023/12/25 09:55:27;;;;;;;0.40;0.40;;;9.00;99.90;;;;;;5129227;27;20566;-80
2023/12/25 09:57:54;;;;;;;1.48;1.38;;;8.80;99.90;;;;;;5125617;27;20366;-79
2023/12/25 10:00:21;;;;;;;0.30;0.30;;;8.80;99.90;;;;;;5127754;27;20055;-79
2023/12/25 10:02:49;;;;;;;0.60;0.60;;;8.90;99.90;;;;;;5112972;27;20753;-78
2023/12/25 10:05:16;;;;;;;0.40;0.40;;;8.70;99.90;;;;;;5126110;27;20038;-78
2023/12/25 10:07:42;;;;;;;0.40;0.40;;;8.80;99.90;;;;;;5130112;27;20619;-77
2023/12/25 10:10:10;;;;;;;0.45;0.45;;;8.80;99.90;;;;;;5111758;27;20063;-79
2023/12/25 10:12:41;;;;;;;0.30;0.30;;;8.90;99.90;;;;;;5127959;27;20027;-78
2023/12/25 10:15:08;;;;;;;0.40;0.40;;;8.90;99.90;;;;;;5141952;27;20417;-79
2023/12/25 10:17:34;;;;;;;0.52;0.52;;;9.00;99.90;;;;;;5095936;27;20039;-82
2023/12/25 10:19:59;;;;;;;0.40;0.40;;;9.00;99.90;;;;;;5139591;27;20083;-81
2023/12/25 10:22:40;;;;;;;0.40;0.40;;;9.10;99.90;;;;;;5133328;27;20041;-80
2023/12/25 10:25:07;;;;;;;1.05;1.05;;;9.10;99.90;;;;;;5130063;27;20070;-78
2023/12/25 10:27:35;;;;;;;0.40;0.40;;;9.20;99.90;;;;;;5128057;27;20435;-80
2023/12/25 10:30:03;;;;;;;0.40;0.40;;;9.20;99.90;;;;;;5110570;27;20456;-78
2023/12/25 10:32:29;;;;;;;0.30;0.30;;;9.20;99.90;;;;;;5128586;27;20046;-81
2023/12/25 10:35:10;;;;;;;1.30;1.30;;;9.20;99.90;;;;;;5109853;27;20042;-77
2023/12/25 10:37:40;;;;;;;0.40;0.40;;;9.20;99.90;;;;;;5117944;27;20524;-77
2023/12/25 10:40:27;;;;;;;0.47;0.47;;;9.20;99.90;;;;;;5133637;27;20054;-77
2023/12/25 10:42:54;;;;;;;0.40;0.40;;;9.20;99.90;;;;;;5136354;27;20039;-80
2023/12/25 10:45:23;;;;;;;0.30;0.30;;;9.00;99.90;;;;;;5136372;27;20038;-79
2023/12/25 10:47:51;;;;;;;0.47;0.47;;;9.10;99.90;;;;;;5127411;27;20043;-77
2023/12/25 10:50:22;;;;;;;2.35;2.15;;;9.20;99.90;;;;;;5140179;27;20073;-79
2023/12/25 10:52:52;;;;;;;0.38;0.38;;;9.20;99.90;;;;;;5133882;27;20035;-80
2023/12/25 10:55:41;;;;;;;0.30;0.30;;;9.30;99.90;;;;;;5123764;27;20805;-81
2023/12/25 10:58:10;;;;;;;0.30;0.30;;;9.30;99.90;;;;;;5126523;27;20078;-78
2023/12/25 11:00:56;;;;;;;0.50;0.50;;;9.30;99.90;;;;;;5126788;27;20442;-77
2023/12/25 11:03:22;;;;;;;0.47;0.47;;;9.40;99.90;;;;;;5099974;27;20112;-79
2023/12/25 11:05:48;;;;;;;;;;;9.40;99.90;;;;;;5127973;27;20038;-79
2023/12/25 11:08:17;;;;;;;0.40;0.40;;;9.60;99.90;;;;;;5126594;27;19924;-79
2023/12/25 11:10:43;;;;;;;0.40;0.40;;;9.60;99.90;;;;;;5125234;27;20054;-77
2023/12/25 11:13:09;;;;;;;0.38;0.38;;;9.60;99.90;;;;;;5075924;27;20066;-77
2023/12/25 11:15:35;;;;;;;0.30;0.30;;;9.70;99.90;;;;;;5138147;27;20263;-82
2023/12/25 11:18:01;;;;;;;0.30;0.30;;;9.80;99.90;;;;;;5125409;27;20046;-78
2023/12/25 11:20:30;;;;;;;0.40;0.40;;;9.80;99.90;;;;;;5125668;27;20118;-79
2023/12/25 11:22:57;;;;;;;0.40;0.40;;;9.90;99.90;;;;;;5120343;27;20054;-80
2023/12/25 11:25:25;;;;;;;0.30;0.30;;;9.90;99.90;;;;;;5124317;27;20407;-77
2023/12/25 11:27:53;;;;;;;0.40;0.40;;;9.90;99.90;;;;;;5123678;27;20133;-78
2023/12/25 11:30:23;;;;;;;0.30;0.30;;;9.80;99.90;;;;;;5127006;27;20118;-78
2023/12/25 11:32:50;;;;;;;1.00;0.50;;;9.80;99.90;;;;;;5130354;27;20050;-79
2023/12/25 11:35:29;;;;;;;0.52;0.52;;;9.80;99.90;;;;;;5127242;27;20058;-80
2023/12/25 11:38:17;;;;;;;0.40;0.40;;;9.80;99.90;;;;;;5121354;27;20125;-78
2023/12/25 11:40:44;;;;;;;0.50;0.50;;;9.80;99.90;;;;;;5123701;27;20415;-80
2023/12/25 11:43:10;;;;;;;0.68;0.68;;;9.80;99.90;;;;;;5106427;27;20075;-77
2023/12/25 11:45:43;;;;;;;0.30;0.30;;;9.80;99.90;;;;;;5133602;27;20062;-77
2023/12/25 11:48:11;;;;;;;0.40;0.40;;;9.80;99.90;;;;;;5120119;27;20118;-79
2023/12/25 11:50:37;;;;;;;0.40;0.40;;;9.80;99.90;;;;;;5118114;27;20479;-78
2023/12/25 11:53:03;;;;;;;;;;;9.80;99.90;;;;;;5132000;27;20039;-79
2023/12/25 11:55:29;;;;;;;0.43;0.43;;;9.70;99.90;;;;;;5129950;27;20275;-80
2023/12/25 11:57:55;;;;;;;1.70;0.57;;;9.70;99.90;;;;;;5130058;27;20044;-79
2023/12/25 12:00:22;;;;;;;0.68;0.68;;;9.70;99.90;;;;;;5132150;27;20053;-79
2023/12/25 12:02:48;;;;;;;0.40;0.40;;;9.70;99.90;;;;;;5134042;27;20043;-77
2023/12/25 12:05:15;;;;;;;0.75;0.75;;;9.70;99.90;;;;;;5113763;27;20096;-79
2023/12/25 12:07:41;;;;;;;1.90;1.33;;;9.80;99.90;;;;;;5133726;27;20043;-80
2023/12/25 12:10:09;;;;;;;0.50;0.50;;;9.70;99.90;;;;;;5134618;27;20399;-78
2023/12/25 12:12:38;;;;;;;0.40;0.40;;;9.70;99.90;;;;;;5133173;27;20247;-78
2023/12/25 12:15:06;;;;;;;0.40;0.40;;;9.80;99.90;;;;;;5129351;27;20047;-77
2023/12/25 12:17:34;;;;;;;1.65;0.63;;;9.70;99.90;;;;;;5134042;27;20035;-79
2023/12/25 12:20:00;;;;;;;0.32;0.32;;;9.70;99.90;;;;;;5119482;27;20050;-80
2023/12/25 12:22:26;;;;;;;0.30;0.30;;;9.80;99.90;;;;;;5136237;27;20035;-79
2023/12/25 12:24:52;;;;;;;0.38;0.38;;;9.80;99.90;;;;;;5131446;27;20055;-79
2023/12/25 12:27:21;;;;;;;0.40;0.40;;;9.80;99.90;;;;;;5132464;27;20043;-79
2023/12/25 12:29:50;;;;;;;0.30;0.30;;;9.80;99.90;;;;;;5097082;27;20066;-77
2023/12/25 12:32:17;;;;;;;0.40;0.40;;;9.80;99.90;;;;;;5126827;27;20467;-77
2023/12/25 12:34:43;;;;;;;0.40;0.40;;;9.80;99.90;;;;;;5092927;28;20534;-80
2023/12/25 12:37:09;;;;;;;0.30;0.30;;;9.70;99.90;;;;;;5127781;27;20078;-79
2023/12/25 12:39:38;;;;;;;0.40;0.40;;;9.70;99.90;;;;;;5104305;27;20047;-80
2023/12/25 12:42:10;;;;;;;0.50;0.50;;;9.80;99.90;;;;;;5126251;27;20062;-78
2023/12/25 12:44:36;;;;;;;0.50;0.50;;;9.80;99.90;;;;;;5126631;27;20062;-78
2023/12/25 12:47:02;;;;;;;0.40;0.40;;;9.80;99.90;;;;;;5126977;27;20038;-80
2023/12/25 12:49:28;;;;;;;2.63;0.63;;;9.80;99.90;;;;;;5128183;27;20087;-79
2023/12/25 12:51:54;;;;;;;0.40;0.40;;;9.80;99.90;;;;;;5128582;27;20045;-77